sensor_id;sensor_type;location;lat;lon;timestamp;P1;durP1;ratioP1;P2;durP2;ratioP2
41436;SDS011;27178;49.460;10.850;2023-01-26T00:02:11;14.97;;;13.10;;
41436;SDS011;27178;49.460;10.850;2023-01-26T00:04:40;15.20;;;13.23;;
41436;SDS011;27178;49.460;10.850;2023-01-26T00:07:08;13.83;;;12.10;;
41436;SDS011;27178;49.460;10.850;2023-01-26T00:09:36;13.00;;;11.50;;
41436;SDS011;27178;49.460;10.850;2023-01-26T00:12:05;14.30;;;12.03;;
41436;SDS011;27178;49.460;10.850;2023-01-26T00:14:33;14.57;;;12.37;;
41436;SDS011;27178;49.460;10.850;2023-01-26T00:17:17;14.40;;;11.87;;
41436;SDS011;27178;49.460;10.850;2023-01-26T00:19:53;13.00;;;11.60;;
41436;SDS011;27178;49.460;10.850;2023-01-26T00:22:22;13.50;;;12.10;;
41436;SDS011;27178;49.460;10.850;2023-01-26T00:24:51;13.67;;;11.47;;
41436;SDS011;27178;49.460;10.850;2023-01-26T00:27:20;14.63;;;11.53;;
41436;SDS011;27178;49.460;10.850;2023-01-26T00:29:48;13.17;;;11.33;;
41436;SDS011;27178;49.460;10.850;2023-01-26T00:32:18;13.27;;;11.00;;
41436;SDS011;27178;49.460;10.850;2023-01-26T00:34:46;16.40;;;11.70;;
41436;SDS011;27178;49.460;10.850;2023-01-26T00:37:14;13.03;;;11.40;;
41436;SDS011;27178;49.460;10.850;2023-01-26T00:39:42;13.20;;;11.43;;
41436;SDS011;27178;49.460;10.850;2023-01-26T00:42:10;11.27;;;9.90;;
41436;SDS011;27178;49.460;10.850;2023-01-26T00:44:40;11.80;;;10.57;;
41436;SDS011;27178;49.460;10.850;2023-01-26T00:47:10;13.63;;;11.67;;
41436;SDS011;27178;49.460;10.850;2023-01-26T00:49:41;12.83;;;11.03;;
41436;SDS011;27178;49.460;10.850;2023-01-26T00:52:10;13.50;;;11.33;;
41436;SDS011;27178;49.460;10.850;2023-01-26T00:54:39;12.40;;;11.00;;
41436;SDS011;27178;49.460;10.850;2023-01-26T00:57:07;11.97;;;10.30;;
41436;SDS011;27178;49.460;10.850;2023-01-26T00:59:35;12.30;;;10.67;;
41436;SDS011;27178;49.460;10.850;2023-01-26T01:02:04;12.77;;;11.37;;
41436;SDS011;27178;49.460;10.850;2023-01-26T01:04:33;12.57;;;11.27;;
41436;SDS011;27178;49.460;10.850;2023-01-26T01:07:02;12.63;;;11.20;;
41436;SDS011;27178;49.460;10.850;2023-01-26T01:09:32;11.83;;;10.53;;
41436;SDS011;27178;49.460;10.850;2023-01-26T01:12:00;12.73;;;10.87;;
41436;SDS011;27178;49.460;10.850;2023-01-26T01:14:29;11.80;;;10.60;;
41436;SDS011;27178;49.460;10.850;2023-01-26T01:16:57;13.40;;;11.50;;
41436;SDS011;27178;49.460;10.850;2023-01-26T01:19:25;12.20;;;10.90;;
41436;SDS011;27178;49.460;10.850;2023-01-26T01:21:53;12.93;;;11.60;;
41436;SDS011;27178;49.460;10.850;2023-01-26T01:24:23;12.17;;;10.67;;
41436;SDS011;27178;49.460;10.850;2023-01-26T01:26:52;13.30;;;11.70;;
41436;SDS011;27178;49.460;10.850;2023-01-26T01:29:20;12.40;;;11.03;;
41436;SDS011;27178;49.460;10.850;2023-01-26T01:31:49;13.67;;;11.53;;
41436;SDS011;27178;49.460;10.850;2023-01-26T01:34:17;12.73;;;11.37;;
41436;SDS011;27178;49.460;10.850;2023-01-26T01:36:46;13.27;;;11.07;;
41436;SDS011;27178;49.460;10.850;2023-01-26T01:39:14;12.33;;;10.37;;
41436;SDS011;27178;49.460;10.850;2023-01-26T01:41:44;10.17;;;9.10;;
41436;SDS011;27178;49.460;10.850;2023-01-26T01:44:14;11.70;;;10.50;;
41436;SDS011;27178;49.460;10.850;2023-01-26T01:46:48;12.57;;;10.50;;
41436;SDS011;27178;49.460;10.850;2023-01-26T01:49:21;12.23;;;10.10;;
41436;SDS011;27178;49.460;10.850;2023-01-26T01:51:55;11.10;;;9.33;;
41436;SDS011;27178;49.460;10.850;2023-01-26T01:54:30;12.07;;;10.60;;
41436;SDS011;27178;49.460;10.850;2023-01-26T01:57:06;10.90;;;9.80;;
41436;SDS011;27178;49.460;10.850;2023-01-26T01:59:41;11.13;;;10.00;;
41436;SDS011;27178;49.460;10.850;2023-01-26T02:02:12;11.47;;;9.30;;
41436;SDS011;27178;49.460;10.850;2023-01-26T02:04:40;10.77;;;9.67;;
41436;SDS011;27178;49.460;10.850;2023-01-26T02:07:09;10.23;;;8.97;;
41436;SDS011;27178;49.460;10.850;2023-01-26T02:09:38;10.17;;;8.97;;
41436;SDS011;27178;49.460;10.850;2023-01-26T02:12:42;9.20;;;8.27;;
41436;SDS011;27178;49.460;10.850;2023-01-26T02:15:11;11.27;;;9.93;;
41436;SDS011;27178;49.460;10.850;2023-01-26T02:17:41;10.20;;;9.10;;
41436;SDS011;27178;49.460;10.850;2023-01-26T02:20:10;10.13;;;9.03;;
41436;SDS011;27178;49.460;10.850;2023-01-26T02:22:46;9.77;;;8.73;;
41436;SDS011;27178;49.460;10.850;2023-01-26T02:25:23;10.40;;;9.30;;
41436;SDS011;27178;49.460;10.850;2023-01-26T02:28:01;9.77;;;8.77;;
41436;SDS011;27178;49.460;10.850;2023-01-26T02:30:29;10.53;;;9.30;;
41436;SDS011;27178;49.460;10.850;2023-01-26T02:32:59;9.80;;;8.77;;
41436;SDS011;27178;49.460;10.850;2023-01-26T02:35:27;9.47;;;8.50;;
41436;SDS011;27178;49.460;10.850;2023-01-26T02:37:56;9.83;;;8.67;;
41436;SDS011;27178;49.460;10.850;2023-01-26T02:40:25;11.07;;;9.33;;
41436;SDS011;27178;49.460;10.850;2023-01-26T02:43:00;8.73;;;7.93;;
41436;SDS011;27178;49.460;10.850;2023-01-26T02:45:28;9.13;;;8.17;;
41436;SDS011;27178;49.460;10.850;2023-01-26T02:47:59;9.97;;;8.27;;
41436;SDS011;27178;49.460;10.850;2023-01-26T02:50:30;9.03;;;8.13;;
41436;SDS011;27178;49.460;10.850;2023-01-26T02:52:58;9.50;;;8.50;;
41436;SDS011;27178;49.460;10.850;2023-01-26T02:55:26;10.93;;;9.27;;
41436;SDS011;27178;49.460;10.850;2023-01-26T02:57:55;9.50;;;8.37;;
41436;SDS011;27178;49.460;10.850;2023-01-26T03:00:26;9.37;;;8.37;;
41436;SDS011;27178;49.460;10.850;2023-01-26T03:02:57;10.07;;;8.70;;
41436;SDS011;27178;49.460;10.850;2023-01-26T03:05:28;9.80;;;8.80;;
41436;SDS011;27178;49.460;10.850;2023-01-26T03:07:56;9.70;;;8.70;;
41436;SDS011;27178;49.460;10.850;2023-01-26T03:10:25;10.73;;;8.70;;
41436;SDS011;27178;49.460;10.850;2023-01-26T03:12:53;9.87;;;8.67;;
41436;SDS011;27178;49.460;10.850;2023-01-26T03:15:22;9.57;;;8.57;;
41436;SDS011;27178;49.460;10.850;2023-01-26T03:18:10;10.03;;;8.93;;
41436;SDS011;27178;49.460;10.850;2023-01-26T03:20:59;9.53;;;8.57;;
41436;SDS011;27178;49.460;10.850;2023-01-26T03:23:45;9.27;;;8.37;;
41436;SDS011;27178;49.460;10.850;2023-01-26T03:26:31;9.10;;;8.13;;
41436;SDS011;27178;49.460;10.850;2023-01-26T03:29:18;10.30;;;8.90;;
41436;SDS011;27178;49.460;10.850;2023-01-26T03:31:47;9.40;;;8.40;;
41436;SDS011;27178;49.460;10.850;2023-01-26T03:34:17;9.90;;;8.87;;
41436;SDS011;27178;49.460;10.850;2023-01-26T03:36:46;10.47;;;9.37;;
41436;SDS011;27178;49.460;10.850;2023-01-26T03:39:14;10.10;;;9.03;;
41436;SDS011;27178;49.460;10.850;2023-01-26T03:41:57;10.67;;;9.10;;
41436;SDS011;27178;49.460;10.850;2023-01-26T03:44:43;9.50;;;8.53;;
41436;SDS011;27178;49.460;10.850;2023-01-26T03:47:30;10.33;;;8.67;;
41436;SDS011;27178;49.460;10.850;2023-01-26T03:50:17;9.00;;;8.07;;
41436;SDS011;27178;49.460;10.850;2023-01-26T03:53:10;11.23;;;9.10;;
41436;SDS011;27178;49.460;10.850;2023-01-26T03:55:57;9.57;;;8.47;;
41436;SDS011;27178;49.460;10.850;2023-01-26T03:58:47;10.20;;;8.67;;
41436;SDS011;27178;49.460;10.850;2023-01-26T04:01:17;11.73;;;9.33;;
41436;SDS011;27178;49.460;10.850;2023-01-26T04:03:47;10.47;;;9.37;;
41436;SDS011;27178;49.460;10.850;2023-01-26T04:06:36;10.30;;;9.20;;
41436;SDS011;27178;49.460;10.850;2023-01-26T04:09:23;10.53;;;9.43;;
41436;SDS011;27178;49.460;10.850;2023-01-26T04:11:51;12.27;;;10.07;;
41436;SDS011;27178;49.460;10.850;2023-01-26T04:14:19;11.93;;;10.13;;
41436;SDS011;27178;49.460;10.850;2023-01-26T04:17:15;11.83;;;9.70;;
41436;SDS011;27178;49.460;10.850;2023-01-26T04:20:02;10.90;;;9.77;;
41436;SDS011;27178;49.460;10.850;2023-01-26T04:22:50;11.60;;;9.73;;
41436;SDS011;27178;49.460;10.850;2023-01-26T04:25:19;12.70;;;10.13;;
41436;SDS011;27178;49.460;10.850;2023-01-26T04:27:48;11.13;;;9.43;;
41436;SDS011;27178;49.460;10.850;2023-01-26T04:30:16;10.40;;;9.20;;
41436;SDS011;27178;49.460;10.850;2023-01-26T04:32:45;10.23;;;8.67;;
41436;SDS011;27178;49.460;10.850;2023-01-26T04:35:13;11.33;;;9.63;;
41436;SDS011;27178;49.460;10.850;2023-01-26T04:37:42;11.53;;;10.33;;
41436;SDS011;27178;49.460;10.850;2023-01-26T04:40:12;11.77;;;10.07;;
41436;SDS011;27178;49.460;10.850;2023-01-26T04:42:40;11.00;;;9.77;;
41436;SDS011;27178;49.460;10.850;2023-01-26T04:45:09;11.50;;;10.30;;
41436;SDS011;27178;49.460;10.850;2023-01-26T04:47:37;10.63;;;9.47;;
41436;SDS011;27178;49.460;10.850;2023-01-26T04:50:06;10.97;;;9.53;;
41436;SDS011;27178;49.460;10.850;2023-01-26T04:52:36;10.90;;;9.63;;
41436;SDS011;27178;49.460;10.850;2023-01-26T04:55:05;11.20;;;8.93;;
41436;SDS011;27178;49.460;10.850;2023-01-26T04:57:35;10.37;;;8.87;;
41436;SDS011;27178;49.460;10.850;2023-01-26T05:00:03;9.57;;;8.57;;
41436;SDS011;27178;49.460;10.850;2023-01-26T05:02:34;10.03;;;8.77;;
41436;SDS011;27178;49.460;10.850;2023-01-26T05:05:02;10.80;;;8.73;;
41436;SDS011;27178;49.460;10.850;2023-01-26T05:07:31;9.17;;;8.27;;
41436;SDS011;27178;49.460;10.850;2023-01-26T05:09:59;10.83;;;8.57;;
41436;SDS011;27178;49.460;10.850;2023-01-26T05:12:27;8.97;;;7.97;;
41436;SDS011;27178;49.460;10.850;2023-01-26T05:15:05;10.00;;;8.93;;
41436;SDS011;27178;49.460;10.850;2023-01-26T05:17:34;8.67;;;7.73;;
41436;SDS011;27178;49.460;10.850;2023-01-26T05:20:02;9.73;;;8.57;;
41436;SDS011;27178;49.460;10.850;2023-01-26T05:22:31;8.70;;;7.80;;
41436;SDS011;27178;49.460;10.850;2023-01-26T05:25:00;9.40;;;8.40;;
41436;SDS011;27178;49.460;10.850;2023-01-26T05:27:28;9.60;;;8.63;;
41436;SDS011;27178;49.460;10.850;2023-01-26T05:29:56;10.90;;;9.80;;
41436;SDS011;27178;49.460;10.850;2023-01-26T05:32:27;12.03;;;10.33;;
41436;SDS011;27178;49.460;10.850;2023-01-26T05:34:57;11.23;;;9.60;;
41436;SDS011;27178;49.460;10.850;2023-01-26T05:37:25;10.90;;;9.60;;
41436;SDS011;27178;49.460;10.850;2023-01-26T05:39:55;11.03;;;9.53;;
41436;SDS011;27178;49.460;10.850;2023-01-26T05:42:23;10.63;;;9.27;;
41436;SDS011;27178;49.460;10.850;2023-01-26T05:44:51;10.60;;;9.43;;
41436;SDS011;27178;49.460;10.850;2023-01-26T05:47:20;10.10;;;8.80;;
41436;SDS011;27178;49.460;10.850;2023-01-26T05:49:49;9.87;;;8.87;;
41436;SDS011;27178;49.460;10.850;2023-01-26T05:52:19;11.07;;;9.10;;
41436;SDS011;27178;49.460;10.850;2023-01-26T05:54:48;9.93;;;8.87;;
41436;SDS011;27178;49.460;10.850;2023-01-26T05:57:16;10.07;;;8.93;;
41436;SDS011;27178;49.460;10.850;2023-01-26T05:59:44;9.87;;;8.60;;
41436;SDS011;27178;49.460;10.850;2023-01-26T06:02:12;10.47;;;9.37;;
41436;SDS011;27178;49.460;10.850;2023-01-26T06:04:41;10.67;;;9.20;;
41436;SDS011;27178;49.460;10.850;2023-01-26T06:07:11;11.23;;;9.40;;
41436;SDS011;27178;49.460;10.850;2023-01-26T06:09:40;10.43;;;9.13;;
41436;SDS011;27178;49.460;10.850;2023-01-26T06:12:11;10.50;;;8.27;;
41436;SDS011;27178;49.460;10.850;2023-01-26T06:14:42;9.23;;;8.23;;
41436;SDS011;27178;49.460;10.850;2023-01-26T06:17:13;10.27;;;8.60;;
41436;SDS011;27178;49.460;10.850;2023-01-26T06:19:42;9.83;;;7.80;;
41436;SDS011;27178;49.460;10.850;2023-01-26T06:22:12;8.93;;;8.03;;
41436;SDS011;27178;49.460;10.850;2023-01-26T06:24:41;10.60;;;8.47;;
41436;SDS011;27178;49.460;10.850;2023-01-26T06:27:11;10.47;;;9.03;;
41436;SDS011;27178;49.460;10.850;2023-01-26T06:29:41;9.87;;;8.33;;
41436;SDS011;27178;49.460;10.850;2023-01-26T06:32:09;9.97;;;8.40;;
41436;SDS011;27178;49.460;10.850;2023-01-26T06:34:39;9.70;;;8.50;;
41436;SDS011;27178;49.460;10.850;2023-01-26T06:37:07;10.57;;;8.37;;
41436;SDS011;27178;49.460;10.850;2023-01-26T06:39:37;10.57;;;8.73;;
41436;SDS011;27178;49.460;10.850;2023-01-26T06:42:07;12.60;;;9.73;;
41436;SDS011;27178;49.460;10.850;2023-01-26T06:44:36;9.57;;;7.77;;
41436;SDS011;27178;49.460;10.850;2023-01-26T06:47:04;10.23;;;8.60;;
41436;SDS011;27178;49.460;10.850;2023-01-26T06:49:33;9.63;;;8.50;;
41436;SDS011;27178;49.460;10.850;2023-01-26T06:52:03;10.73;;;8.53;;
41436;SDS011;27178;49.460;10.850;2023-01-26T06:54:48;9.73;;;8.27;;
41436;SDS011;27178;49.460;10.850;2023-01-26T06:57:16;10.30;;;7.83;;
41436;SDS011;27178;49.460;10.850;2023-01-26T06:59:45;8.83;;;7.73;;
41436;SDS011;27178;49.460;10.850;2023-01-26T07:02:16;10.07;;;8.73;;
41436;SDS011;27178;49.460;10.850;2023-01-26T07:04:47;9.30;;;8.07;;
41436;SDS011;27178;49.460;10.850;2023-01-26T07:07:16;9.40;;;7.93;;
41436;SDS011;27178;49.460;10.850;2023-01-26T07:09:45;8.60;;;7.70;;
41436;SDS011;27178;49.460;10.850;2023-01-26T07:12:14;9.83;;;8.83;;
41436;SDS011;27178;49.460;10.850;2023-01-26T07:14:42;9.43;;;8.27;;
41436;SDS011;27178;49.460;10.850;2023-01-26T07:17:11;8.87;;;7.97;;
41436;SDS011;27178;49.460;10.850;2023-01-26T07:19:39;10.23;;;7.73;;
41436;SDS011;27178;49.460;10.850;2023-01-26T07:22:07;8.57;;;7.53;;
41436;SDS011;27178;49.460;10.850;2023-01-26T07:24:35;8.50;;;7.27;;
41436;SDS011;27178;49.460;10.850;2023-01-26T07:27:04;9.23;;;7.47;;
41436;SDS011;27178;49.460;10.850;2023-01-26T07:29:34;8.63;;;7.73;;
41436;SDS011;27178;49.460;10.850;2023-01-26T07:32:02;8.53;;;7.30;;
41436;SDS011;27178;49.460;10.850;2023-01-26T07:34:31;7.73;;;6.87;;
41436;SDS011;27178;49.460;10.850;2023-01-26T07:36:59;8.77;;;7.63;;
41436;SDS011;27178;49.460;10.850;2023-01-26T07:39:27;9.20;;;7.90;;
41436;SDS011;27178;49.460;10.850;2023-01-26T07:41:56;9.63;;;7.53;;
41436;SDS011;27178;49.460;10.850;2023-01-26T07:44:25;10.43;;;8.07;;
41436;SDS011;27178;49.460;10.850;2023-01-26T07:46:54;8.10;;;7.10;;
41436;SDS011;27178;49.460;10.850;2023-01-26T07:49:24;8.30;;;7.20;;
41436;SDS011;27178;49.460;10.850;2023-01-26T07:51:52;8.20;;;7.30;;
41436;SDS011;27178;49.460;10.850;2023-01-26T07:54:20;9.37;;;7.90;;
41436;SDS011;27178;49.460;10.850;2023-01-26T07:56:49;8.73;;;7.70;;
41436;SDS011;27178;49.460;10.850;2023-01-26T07:59:20;8.00;;;7.20;;
41436;SDS011;27178;49.460;10.850;2023-01-26T08:01:48;11.37;;;9.33;;
41436;SDS011;27178;49.460;10.850;2023-01-26T08:04:18;9.17;;;7.73;;
41436;SDS011;27178;49.460;10.850;2023-01-26T08:06:47;9.97;;;8.70;;
41436;SDS011;27178;49.460;10.850;2023-01-26T08:09:17;9.17;;;8.17;;
41436;SDS011;27178;49.460;10.850;2023-01-26T08:11:46;9.00;;;8.00;;
41436;SDS011;27178;49.460;10.850;2023-01-26T08:14:14;8.80;;;7.83;;
41436;SDS011;27178;49.460;10.850;2023-01-26T08:16:43;8.50;;;7.30;;
41436;SDS011;27178;49.460;10.850;2023-01-26T08:19:11;8.23;;;7.33;;
41436;SDS011;27178;49.460;10.850;2023-01-26T08:21:41;8.23;;;7.27;;
41436;SDS011;27178;49.460;10.850;2023-01-26T08:24:10;7.97;;;7.10;;
41436;SDS011;27178;49.460;10.850;2023-01-26T08:26:38;7.93;;;6.93;;
41436;SDS011;27178;49.460;10.850;2023-01-26T08:29:07;8.47;;;7.40;;
41436;SDS011;27178;49.460;10.850;2023-01-26T08:31:35;8.13;;;7.10;;
41436;SDS011;27178;49.460;10.850;2023-01-26T08:34:05;8.37;;;7.17;;
41436;SDS011;27178;49.460;10.850;2023-01-26T08:36:33;7.40;;;6.60;;
41436;SDS011;27178;49.460;10.850;2023-01-26T08:39:03;7.37;;;6.43;;
41436;SDS011;27178;49.460;10.850;2023-01-26T08:41:31;7.80;;;6.83;;
41436;SDS011;27178;49.460;10.850;2023-01-26T08:44:00;8.70;;;6.87;;
41436;SDS011;27178;49.460;10.850;2023-01-26T08:46:28;8.03;;;7.20;;
41436;SDS011;27178;49.460;10.850;2023-01-26T08:48:56;7.87;;;6.70;;
41436;SDS011;27178;49.460;10.850;2023-01-26T08:51:25;7.37;;;6.47;;
41436;SDS011;27178;49.460;10.850;2023-01-26T08:53:54;7.37;;;5.73;;
41436;SDS011;27178;49.460;10.850;2023-01-26T08:56:24;7.23;;;6.23;;
41436;SDS011;27178;49.460;10.850;2023-01-26T08:58:53;6.93;;;6.23;;
41436;SDS011;27178;49.460;10.850;2023-01-26T09:01:21;8.03;;;6.20;;
41436;SDS011;27178;49.460;10.850;2023-01-26T09:03:50;7.20;;;6.50;;
41436;SDS011;27178;49.460;10.850;2023-01-26T09:06:18;7.27;;;6.47;;
41436;SDS011;27178;49.460;10.850;2023-01-26T09:08:47;6.73;;;6.03;;
41436;SDS011;27178;49.460;10.850;2023-01-26T09:11:15;6.70;;;5.93;;
41436;SDS011;27178;49.460;10.850;2023-01-26T09:13:48;6.17;;;5.40;;
41436;SDS011;27178;49.460;10.850;2023-01-26T09:16:21;5.67;;;5.07;;
41436;SDS011;27178;49.460;10.850;2023-01-26T09:18:51;5.67;;;5.17;;
41436;SDS011;27178;49.460;10.850;2023-01-26T09:21:20;6.27;;;5.63;;
41436;SDS011;27178;49.460;10.850;2023-01-26T09:23:50;6.17;;;5.57;;
41436;SDS011;27178;49.460;10.850;2023-01-26T09:26:19;6.20;;;5.47;;
41436;SDS011;27178;49.460;10.850;2023-01-26T09:28:49;8.77;;;5.77;;
41436;SDS011;27178;49.460;10.850;2023-01-26T09:31:18;5.33;;;4.83;;
41436;SDS011;27178;49.460;10.850;2023-01-26T09:33:47;6.23;;;5.03;;
41436;SDS011;27178;49.460;10.850;2023-01-26T09:36:16;5.50;;;5.00;;
41436;SDS011;27178;49.460;10.850;2023-01-26T09:38:44;4.93;;;4.27;;
41436;SDS011;27178;49.460;10.850;2023-01-26T09:41:17;5.73;;;5.07;;
41436;SDS011;27178;49.460;10.850;2023-01-26T09:43:58;5.83;;;5.17;;
41436;SDS011;27178;49.460;10.850;2023-01-26T09:46:33;5.67;;;5.07;;
41436;SDS011;27178;49.460;10.850;2023-01-26T09:49:11;6.70;;;5.73;;
41436;SDS011;27178;49.460;10.850;2023-01-26T09:51:43;7.07;;;6.23;;
41436;SDS011;27178;49.460;10.850;2023-01-26T09:54:19;6.20;;;5.60;;
41436;SDS011;27178;49.460;10.850;2023-01-26T09:56:53;7.80;;;5.87;;
41436;SDS011;27178;49.460;10.850;2023-01-26T09:59:29;7.50;;;6.20;;
41436;SDS011;27178;49.460;10.850;2023-01-26T10:02:03;8.03;;;6.03;;
41436;SDS011;27178;49.460;10.850;2023-01-26T10:04:45;7.23;;;6.33;;
41436;SDS011;27178;49.460;10.850;2023-01-26T10:07:17;7.80;;;6.37;;
41436;SDS011;27178;49.460;10.850;2023-01-26T10:09:46;7.50;;;6.63;;
41436;SDS011;27178;49.460;10.850;2023-01-26T10:12:18;7.03;;;6.33;;
41436;SDS011;27178;49.460;10.850;2023-01-26T10:14:52;10.77;;;7.70;;
41436;SDS011;27178;49.460;10.850;2023-01-26T10:17:25;9.13;;;7.83;;
41436;SDS011;27178;49.460;10.850;2023-01-26T10:19:59;9.27;;;8.03;;
41436;SDS011;27178;49.460;10.850;2023-01-26T10:22:35;9.33;;;7.80;;
41436;SDS011;27178;49.460;10.850;2023-01-26T10:25:13;9.50;;;8.50;;
41436;SDS011;27178;49.460;10.850;2023-01-26T10:27:44;11.13;;;8.50;;
41436;SDS011;27178;49.460;10.850;2023-01-26T10:30:14;11.57;;;8.93;;
41436;SDS011;27178;49.460;10.850;2023-01-26T10:32:45;11.43;;;8.80;;
41436;SDS011;27178;49.460;10.850;2023-01-26T10:35:18;11.70;;;9.43;;
41436;SDS011;27178;49.460;10.850;2023-01-26T10:37:47;10.80;;;9.30;;
41436;SDS011;27178;49.460;10.850;2023-01-26T10:40:18;11.97;;;9.80;;
41436;SDS011;27178;49.460;10.850;2023-01-26T10:42:53;10.93;;;9.47;;
41436;SDS011;27178;49.460;10.850;2023-01-26T10:45:26;10.47;;;8.63;;
41436;SDS011;27178;49.460;10.850;2023-01-26T10:48:04;12.13;;;9.07;;
41436;SDS011;27178;49.460;10.850;2023-01-26T10:50:41;10.90;;;8.73;;
41436;SDS011;27178;49.460;10.850;2023-01-26T10:53:13;11.90;;;9.00;;
41436;SDS011;27178;49.460;10.850;2023-01-26T10:55:46;12.10;;;9.87;;
41436;SDS011;27178;49.460;10.850;2023-01-26T10:58:38;10.77;;;8.97;;
41436;SDS011;27178;49.460;10.850;2023-01-26T11:01:15;11.07;;;8.73;;
41436;SDS011;27178;49.460;10.850;2023-01-26T11:03:57;10.83;;;9.13;;
41436;SDS011;27178;49.460;10.850;2023-01-26T11:06:30;11.17;;;8.93;;
41436;SDS011;27178;49.460;10.850;2023-01-26T11:09:07;12.30;;;9.67;;
41436;SDS011;27178;49.460;10.850;2023-01-26T11:11:36;12.47;;;9.53;;
41436;SDS011;27178;49.460;10.850;2023-01-26T11:14:09;11.63;;;9.47;;
41436;SDS011;27178;49.460;10.850;2023-01-26T11:16:40;12.87;;;9.77;;
41436;SDS011;27178;49.460;10.850;2023-01-26T11:19:16;11.97;;;9.73;;
41436;SDS011;27178;49.460;10.850;2023-01-26T11:21:54;13.30;;;10.00;;
41436;SDS011;27178;49.460;10.850;2023-01-26T11:24:28;12.80;;;9.97;;
41436;SDS011;27178;49.460;10.850;2023-01-26T11:27:07;12.50;;;10.37;;
41436;SDS011;27178;49.460;10.850;2023-01-26T11:30:00;11.63;;;9.50;;
41436;SDS011;27178;49.460;10.850;2023-01-26T11:32:44;11.97;;;9.80;;
41436;SDS011;27178;49.460;10.850;2023-01-26T11:35:21;14.20;;;10.30;;
41436;SDS011;27178;49.460;10.850;2023-01-26T11:38:00;13.43;;;11.03;;
41436;SDS011;27178;49.460;10.850;2023-01-26T11:40:43;13.80;;;10.63;;
41436;SDS011;27178;49.460;10.850;2023-01-26T11:43:21;12.07;;;9.90;;
41436;SDS011;27178;49.460;10.850;2023-01-26T11:49:01;14.17;;;10.60;;
41436;SDS011;27178;49.460;10.850;2023-01-26T11:51:46;13.10;;;10.13;;
41436;SDS011;27178;49.460;10.850;2023-01-26T11:54:27;12.40;;;9.60;;
41436;SDS011;27178;49.460;10.850;2023-01-26T11:57:08;12.47;;;9.50;;
41436;SDS011;27178;49.460;10.850;2023-01-26T11:59:47;12.73;;;9.27;;
41436;SDS011;27178;49.460;10.850;2023-01-26T12:02:24;12.90;;;9.93;;
41436;SDS011;27178;49.460;10.850;2023-01-26T12:04:58;14.23;;;11.30;;
41436;SDS011;27178;49.460;10.850;2023-01-26T12:07:32;13.50;;;9.93;;
41436;SDS011;27178;49.460;10.850;2023-01-26T12:10:17;12.50;;;9.97;;
41436;SDS011;27178;49.460;10.850;2023-01-26T12:12:51;13.33;;;10.80;;
41436;SDS011;27178;49.460;10.850;2023-01-26T12:15:23;13.80;;;10.33;;
41436;SDS011;27178;49.460;10.850;2023-01-26T12:17:57;12.60;;;10.47;;
41436;SDS011;27178;49.460;10.850;2023-01-26T12:20:31;14.63;;;11.80;;
41436;SDS011;27178;49.460;10.850;2023-01-26T12:23:05;13.13;;;10.70;;
41436;SDS011;27178;49.460;10.850;2023-01-26T12:25:40;13.03;;;10.53;;
41436;SDS011;27178;49.460;10.850;2023-01-26T12:28:16;11.77;;;10.33;;
41436;SDS011;27178;49.460;10.850;2023-01-26T12:30:50;11.57;;;9.97;;
41436;SDS011;27178;49.460;10.850;2023-01-26T12:33:24;14.97;;;11.20;;
41436;SDS011;27178;49.460;10.850;2023-01-26T12:36:01;13.37;;;11.90;;
41436;SDS011;27178;49.460;10.850;2023-01-26T12:38:58;14.63;;;11.30;;
41436;SDS011;27178;49.460;10.850;2023-01-26T12:41:50;12.63;;;10.13;;
41436;SDS011;27178;49.460;10.850;2023-01-26T12:44:33;11.37;;;9.87;;
41436;SDS011;27178;49.460;10.850;2023-01-26T12:47:06;15.00;;;11.53;;
41436;SDS011;27178;49.460;10.850;2023-01-26T12:49:42;14.43;;;11.37;;
41436;SDS011;27178;49.460;10.850;2023-01-26T12:52:18;14.80;;;11.80;;
41436;SDS011;27178;49.460;10.850;2023-01-26T12:54:53;14.30;;;12.00;;
41436;SDS011;27178;49.460;10.850;2023-01-26T12:57:30;16.60;;;13.80;;
41436;SDS011;27178;49.460;10.850;2023-01-26T13:00:03;17.40;;;13.93;;
41436;SDS011;27178;49.460;10.850;2023-01-26T13:02:35;15.73;;;12.80;;
41436;SDS011;27178;49.460;10.850;2023-01-26T13:05:05;15.50;;;12.37;;
41436;SDS011;27178;49.460;10.850;2023-01-26T13:07:35;15.20;;;12.63;;
41436;SDS011;27178;49.460;10.850;2023-01-26T13:10:19;16.03;;;13.07;;
41436;SDS011;27178;49.460;10.850;2023-01-26T13:12:57;17.13;;;13.37;;
41436;SDS011;27178;49.460;10.850;2023-01-26T13:15:27;16.20;;;13.07;;
41436;SDS011;27178;49.460;10.850;2023-01-26T13:17:57;15.23;;;12.37;;
41436;SDS011;27178;49.460;10.850;2023-01-26T13:23:37;15.90;;;13.40;;
41436;SDS011;27178;49.460;10.850;2023-01-26T13:26:14;15.83;;;13.30;;
41436;SDS011;27178;49.460;10.850;2023-01-26T13:29:27;18.00;;;13.40;;
41436;SDS011;27178;49.460;10.850;2023-01-26T13:31:59;16.70;;;13.50;;
41436;SDS011;27178;49.460;10.850;2023-01-26T13:34:50;18.13;;;14.73;;
41436;SDS011;27178;49.460;10.850;2023-01-26T13:37:22;15.97;;;13.70;;
41436;SDS011;27178;49.460;10.850;2023-01-26T13:39:58;17.23;;;13.93;;
41436;SDS011;27178;49.460;10.850;2023-01-26T13:42:28;17.90;;;14.30;;
41436;SDS011;27178;49.460;10.850;2023-01-26T13:45:04;18.23;;;14.67;;
41436;SDS011;27178;49.460;10.850;2023-01-26T13:47:39;17.30;;;14.07;;
41436;SDS011;27178;49.460;10.850;2023-01-26T13:50:21;17.63;;;14.43;;
41436;SDS011;27178;49.460;10.850;2023-01-26T13:52:55;18.63;;;15.57;;
41436;SDS011;27178;49.460;10.850;2023-01-26T13:55:26;20.03;;;15.87;;
41436;SDS011;27178;49.460;10.850;2023-01-26T13:58:09;20.43;;;15.40;;
41436;SDS011;27178;49.460;10.850;2023-01-26T14:00:38;17.77;;;15.60;;
41436;SDS011;27178;49.460;10.850;2023-01-26T14:03:17;19.70;;;15.50;;
41436;SDS011;27178;49.460;10.850;2023-01-26T14:05:52;20.93;;;16.47;;
41436;SDS011;27178;49.460;10.850;2023-01-26T14:08:23;20.33;;;16.27;;
41436;SDS011;27178;49.460;10.850;2023-01-26T14:10:53;20.20;;;16.33;;
41436;SDS011;27178;49.460;10.850;2023-01-26T14:13:23;20.70;;;17.20;;
41436;SDS011;27178;49.460;10.850;2023-01-26T14:15:58;18.67;;;16.10;;
41436;SDS011;27178;49.460;10.850;2023-01-26T14:18:29;28.80;;;25.33;;
41436;SDS011;27178;49.460;10.850;2023-01-26T14:20:58;25.27;;;21.70;;
41436;SDS011;27178;49.460;10.850;2023-01-26T14:23:32;23.73;;;19.43;;
41436;SDS011;27178;49.460;10.850;2023-01-26T14:26:04;19.50;;;17.30;;
41436;SDS011;27178;49.460;10.850;2023-01-26T14:28:39;22.40;;;16.67;;
41436;SDS011;27178;49.460;10.850;2023-01-26T14:31:11;19.37;;;15.77;;
41436;SDS011;27178;49.460;10.850;2023-01-26T14:33:45;20.83;;;17.43;;
41436;SDS011;27178;49.460;10.850;2023-01-26T14:36:15;20.67;;;16.93;;
41436;SDS011;27178;49.460;10.850;2023-01-26T14:38:46;18.93;;;16.10;;
41436;SDS011;27178;49.460;10.850;2023-01-26T14:41:17;21.70;;;16.80;;
41436;SDS011;27178;49.460;10.850;2023-01-26T14:43:49;22.70;;;18.23;;
41436;SDS011;27178;49.460;10.850;2023-01-26T14:46:24;21.57;;;17.97;;
41436;SDS011;27178;49.460;10.850;2023-01-26T14:48:58;19.33;;;16.33;;
41436;SDS011;27178;49.460;10.850;2023-01-26T14:51:32;20.47;;;16.13;;
41436;SDS011;27178;49.460;10.850;2023-01-26T14:54:02;22.23;;;16.67;;
41436;SDS011;27178;49.460;10.850;2023-01-26T14:56:36;20.83;;;15.83;;
41436;SDS011;27178;49.460;10.850;2023-01-26T14:59:06;22.43;;;16.83;;